sensor_id;sensor_type;location;lat;lon;timestamp;pressure;altitude;pressure_sealevel;temperature;humidity
75640;BME280;64233;51.486;6.332;2023-06-14T00:00:34;101086.66;;;16.95;100.00
75640;BME280;64233;51.486;6.332;2023-06-14T00:03:00;101092.94;;;16.91;100.00
75640;BME280;64233;51.486;6.332;2023-06-14T00:05:25;101091.75;;;17.02;100.00
75640;BME280;64233;51.486;6.332;2023-06-14T00:07:51;101096.09;;;17.03;100.00
75640;BME280;64233;51.486;6.332;2023-06-14T00:10:18;101104.63;;;16.91;100.00
75640;BME280;64233;51.486;6.332;2023-06-14T00:12:44;101108.19;;;16.81;100.00
75640;BME280;64233;51.486;6.332;2023-06-14T00:15:09;101111.78;;;16.72;100.00
75640;BME280;64233;51.486;6.332;2023-06-14T00:17:35;101103.41;;;16.68;100.00
75640;BME280;64233;51.486;6.332;2023-06-14T00:20:03;101109.50;;;16.55;100.00
75640;BME280;64233;51.486;6.332;2023-06-14T00:22:31;101115.25;;;16.43;100.00
75640;BME280;64233;51.486;6.332;2023-06-14T00:24:56;101114.47;;;16.37;100.00
75640;BME280;64233;51.486;6.332;2023-06-14T00:27:22;101114.19;;;16.39;100.00
75640;BME280;64233;51.486;6.332;2023-06-14T00:29:47;101118.78;;;16.43;100.00
75640;BME280;64233;51.486;6.332;2023-06-14T00:32:12;101123.66;;;16.41;100.00
75640;BME280;64233;51.486;6.332;2023-06-14T00:34:38;101129.13;;;16.36;100.00
75640;BME280;64233;51.486;6.332;2023-06-14T00:37:03;101123.47;;;16.27;100.00
75640;BME280;64233;51.486;6.332;2023-06-14T00:39:29;101126.19;;;16.27;100.00
75640;BME280;64233;51.486;6.332;2023-06-14T00:41:54;101131.09;;;16.20;100.00
75640;BME280;64233;51.486;6.332;2023-06-14T00:44:19;101128.88;;;16.27;100.00
75640;BME280;64233;51.486;6.332;2023-06-14T00:46:45;101130.00;;;16.26;100.00
75640;BME280;64233;51.486;6.332;2023-06-14T00:49:12;101123.25;;;16.18;100.00
75640;BME280;64233;51.486;6.332;2023-06-14T00:51:40;101122.75;;;16.16;100.00
75640;BME280;64233;51.486;6.332;2023-06-14T00:54:06;101129.59;;;16.04;100.00
75640;BME280;64233;51.486;6.332;2023-06-14T00:56:31;101124.75;;;16.00;100.00
75640;BME280;64233;51.486;6.332;2023-06-14T00:58:57;101136.66;;;15.99;100.00
75640;BME280;64233;51.486;6.332;2023-06-14T01:01:23;101136.38;;;15.96;100.00
75640;BME280;64233;51.486;6.332;2023-06-14T01:03:49;101137.50;;;15.90;100.00
75640;BME280;64233;51.486;6.332;2023-06-14T01:09:06;101139.16;;;15.75;100.00
75640;BME280;64233;51.486;6.332;2023-06-14T01:11:43;101135.16;;;15.57;100.00
75640;BME280;64233;51.486;6.332;2023-06-14T01:14:12;101144.06;;;15.58;100.00
75640;BME280;64233;51.486;6.332;2023-06-14T01:16:39;101137.84;;;15.62;100.00
75640;BME280;64233;51.486;6.332;2023-06-14T01:19:07;101133.81;;;15.60;100.00
75640;BME280;64233;51.486;6.332;2023-06-14T01:21:38;101130.56;;;15.53;100.00
75640;BME280;64233;51.486;6.332;2023-06-14T01:24:09;101137.06;;;15.46;100.00
75640;BME280;64233;51.486;6.332;2023-06-14T01:26:36;101138.19;;;15.40;100.00
75640;BME280;64233;51.486;6.332;2023-06-14T01:29:03;101140.63;;;15.31;100.00
75640;BME280;64233;51.486;6.332;2023-06-14T01:31:29;101139.03;;;15.25;100.00
75640;BME280;64233;51.486;6.332;2023-06-14T01:34:04;101139.84;;;15.31;100.00
75640;BME280;64233;51.486;6.332;2023-06-14T01:36:30;101136.84;;;15.27;100.00
75640;BME280;64233;51.486;6.332;2023-06-14T01:38:55;101137.41;;;15.24;100.00
75640;BME280;64233;51.486;6.332;2023-06-14T01:41:22;101135.53;;;15.20;100.00
75640;BME280;64233;51.486;6.332;2023-06-14T01:43:48;101146.06;;;15.16;100.00
75640;BME280;64233;51.486;6.332;2023-06-14T01:46:15;101137.16;;;15.15;100.00
75640;BME280;64233;51.486;6.332;2023-06-14T01:48:41;101132.28;;;15.18;100.00
75640;BME280;64233;51.486;6.332;2023-06-14T01:51:06;101140.66;;;15.16;100.00
75640;BME280;64233;51.486;6.332;2023-06-14T01:53:31;101139.88;;;15.15;100.00
75640;BME280;64233;51.486;6.332;2023-06-14T01:55:57;101136.34;;;15.05;100.00
75640;BME280;64233;51.486;6.332;2023-06-14T01:58:22;101136.88;;;15.12;100.00
75640;BME280;64233;51.486;6.332;2023-06-14T02:00:48;101143.09;;;15.07;100.00
75640;BME280;64233;51.486;6.332;2023-06-14T02:03:14;101138.25;;;14.94;100.00
75640;BME280;64233;51.486;6.332;2023-06-14T02:05:40;101132.31;;;14.97;100.00
75640;BME280;64233;51.486;6.332;2023-06-14T02:08:06;101135.81;;;14.82;100.00
75640;BME280;64233;51.486;6.332;2023-06-14T02:10:32;101145.81;;;14.76;100.00
75640;BME280;64233;51.486;6.332;2023-06-14T02:12:57;101132.56;;;14.75;100.00
75640;BME280;64233;51.486;6.332;2023-06-14T02:15:22;101130.97;;;14.69;100.00
75640;BME280;64233;51.486;6.332;2023-06-14T02:17:48;101134.16;;;14.60;100.00
75640;BME280;64233;51.486;6.332;2023-06-14T02:20:14;101123.91;;;14.57;100.00
75640;BME280;64233;51.486;6.332;2023-06-14T02:22:40;101126.84;;;14.56;100.00
75640;BME280;64233;51.486;6.332;2023-06-14T02:25:06;101135.50;;;14.58;100.00
75640;BME280;64233;51.486;6.332;2023-06-14T02:27:32;101135.50;;;14.53;100.00
75640;BME280;64233;51.486;6.332;2023-06-14T02:29:57;101130.63;;;14.50;100.00
75640;BME280;64233;51.486;6.332;2023-06-14T02:32:23;101135.22;;;14.49;100.00
75640;BME280;64233;51.486;6.332;2023-06-14T02:34:48;101142.53;;;14.54;100.00
75640;BME280;64233;51.486;6.332;2023-06-14T02:37:16;101142.50;;;14.49;100.00
75640;BME280;64233;51.486;6.332;2023-06-14T02:39:41;101139.53;;;14.40;100.00
75640;BME280;64233;51.486;6.332;2023-06-14T02:42:07;101139.53;;;14.35;100.00
75640;BME280;64233;51.486;6.332;2023-06-14T02:44:32;101139.25;;;14.31;100.00
75640;BME280;64233;51.486;6.332;2023-06-14T02:46:57;101143.81;;;14.25;100.00
75640;BME280;64233;51.486;6.332;2023-06-14T02:49:24;101142.19;;;14.24;100.00
75640;BME280;64233;51.486;6.332;2023-06-14T02:51:49;101142.19;;;14.19;100.00
75640;BME280;64233;51.486;6.332;2023-06-14T02:54:14;101151.91;;;14.20;100.00
75640;BME280;64233;51.486;6.332;2023-06-14T02:56:40;101143.28;;;14.18;100.00
75640;BME280;64233;51.486;6.332;2023-06-14T02:59:06;101147.59;;;14.19;100.00
75640;BME280;64233;51.486;6.332;2023-06-14T03:01:32;101154.88;;;14.19;100.00
75640;BME280;64233;51.486;6.332;2023-06-14T03:04:06;101152.72;;;14.16;100.00
75640;BME280;64233;51.486;6.332;2023-06-14T03:06:32;101154.31;;;14.06;100.00
75640;BME280;64233;51.486;6.332;2023-06-14T03:08:58;101164.53;;;14.04;100.00
75640;BME280;64233;51.486;6.332;2023-06-14T03:11:25;101162.41;;;14.06;100.00
75640;BME280;64233;51.486;6.332;2023-06-14T03:13:51;101165.84;;;13.91;100.00
75640;BME280;64233;51.486;6.332;2023-06-14T03:16:17;101163.91;;;13.82;100.00
75640;BME280;64233;51.486;6.332;2023-06-14T03:18:45;101170.09;;;13.77;100.00
75640;BME280;64233;51.486;6.332;2023-06-14T03:21:10;101172.28;;;13.80;100.00
75640;BME280;64233;51.486;6.332;2023-06-14T03:23:36;101173.16;;;13.91;100.00
75640;BME280;64233;51.486;6.332;2023-06-14T03:26:01;101169.91;;;13.94;100.00
75640;BME280;64233;51.486;6.332;2023-06-14T03:28:26;101173.69;;;13.93;100.00
75640;BME280;64233;51.486;6.332;2023-06-14T03:30:52;101176.41;;;13.98;100.00
75640;BME280;64233;51.486;6.332;2023-06-14T03:33:17;101178.81;;;13.89;100.00
75640;BME280;64233;51.486;6.332;2023-06-14T03:35:43;101181.72;;;13.83;100.00
75640;BME280;64233;51.486;6.332;2023-06-14T03:38:08;101181.22;;;13.86;100.00
75640;BME280;64233;51.486;6.332;2023-06-14T03:40:34;101190.16;;;13.97;100.00
75640;BME280;64233;51.486;6.332;2023-06-14T03:42:59;101183.44;;;14.04;100.00
75640;BME280;64233;51.486;6.332;2023-06-14T03:45:25;101187.78;;;14.05;100.00
75640;BME280;64233;51.486;6.332;2023-06-14T03:47:50;101193.75;;;14.18;100.00
75640;BME280;64233;51.486;6.332;2023-06-14T03:50:17;101190.00;;;14.24;100.00
75640;BME280;64233;51.486;6.332;2023-06-14T03:52:43;101204.91;;;14.47;100.00
75640;BME280;64233;51.486;6.332;2023-06-14T03:55:09;101193.09;;;14.63;100.00
75640;BME280;64233;51.486;6.332;2023-06-14T03:57:35;101198.78;;;14.72;100.00
75640;BME280;64233;51.486;6.332;2023-06-14T04:00:00;101200.34;;;14.58;100.00
75640;BME280;64233;51.486;6.332;2023-06-14T04:02:25;101199.00;;;14.50;100.00
75640;BME280;64233;51.486;6.332;2023-06-14T04:04:54;101205.00;;;14.68;100.00
75640;BME280;64233;51.486;6.332;2023-06-14T04:07:19;101202.31;;;14.98;100.00
75640;BME280;64233;51.486;6.332;2023-06-14T04:09:45;101213.66;;;15.16;100.00
75640;BME280;64233;51.486;6.332;2023-06-14T04:12:11;101208.53;;;15.25;100.00
75640;BME280;64233;51.486;6.332;2023-06-14T04:14:37;101214.19;;;15.44;100.00
75640;BME280;64233;51.486;6.332;2023-06-14T04:17:02;101222.84;;;15.46;100.00
75640;BME280;64233;51.486;6.332;2023-06-14T04:19:27;101223.59;;;15.62;100.00
75640;BME280;64233;51.486;6.332;2023-06-14T04:21:53;101223.31;;;15.84;100.00
75640;BME280;64233;51.486;6.332;2023-06-14T04:24:18;101223.63;;;15.57;100.00
75640;BME280;64233;51.486;6.332;2023-06-14T04:26:45;101219.03;;;15.52;100.00
75640;BME280;64233;51.486;6.332;2023-06-14T04:29:11;101226.03;;;15.63;100.00
75640;BME280;64233;51.486;6.332;2023-06-14T04:31:40;101229.53;;;15.95;100.00
75640;BME280;64233;51.486;6.332;2023-06-14T04:34:05;101232.22;;;16.60;100.00
75640;BME280;64233;51.486;6.332;2023-06-14T04:36:35;101235.47;;;16.57;100.00
75640;BME280;64233;51.486;6.332;2023-06-14T04:39:03;101242.13;;;16.30;100.00
75640;BME280;64233;51.486;6.332;2023-06-14T04:41:30;101241.63;;;16.13;100.00
75640;BME280;64233;51.486;6.332;2023-06-14T04:43:57;101247.41;;;15.75;100.00
75640;BME280;64233;51.486;6.332;2023-06-14T04:46:23;101249.34;;;15.54;100.00
75640;BME280;64233;51.486;6.332;2023-06-14T04:48:49;101249.34;;;15.44;100.00
75640;BME280;64233;51.486;6.332;2023-06-14T04:51:15;101246.34;;;15.50;100.00
75640;BME280;64233;51.486;6.332;2023-06-14T04:53:41;101249.06;;;15.56;100.00
75640;BME280;64233;51.486;6.332;2023-06-14T04:56:06;101247.41;;;15.70;100.00
75640;BME280;64233;51.486;6.332;2023-06-14T04:58:32;101253.41;;;15.57;100.00
75640;BME280;64233;51.486;6.332;2023-06-14T05:00:57;101250.41;;;15.69;100.00
75640;BME280;64233;51.486;6.332;2023-06-14T05:03:24;101255.25;;;15.87;100.00
75640;BME280;64233;51.486;6.332;2023-06-14T05:05:50;101260.91;;;16.06;100.00
75640;BME280;64233;51.486;6.332;2023-06-14T05:08:16;101256.28;;;16.07;100.00
75640;BME280;64233;51.486;6.332;2023-06-14T05:10:41;101253.59;;;16.07;100.00
75640;BME280;64233;51.486;6.332;2023-06-14T05:13:06;101269.25;;;16.15;100.00
75640;BME280;64233;51.486;6.332;2023-06-14T05:15:31;101260.88;;;16.16;100.00
75640;BME280;64233;51.486;6.332;2023-06-14T05:17:57;101266.00;;;16.18;100.00
75640;BME280;64233;51.486;6.332;2023-06-14T05:20:23;101265.44;;;16.26;100.00
75640;BME280;64233;51.486;6.332;2023-06-14T05:22:54;101274.06;;;16.28;100.00
75640;BME280;64233;51.486;6.332;2023-06-14T05:25:22;101277.50;;;16.49;100.00
75640;BME280;64233;51.486;6.332;2023-06-14T05:27:48;101277.22;;;16.51;100.00
75640;BME280;64233;51.486;6.332;2023-06-14T05:30:14;101276.63;;;16.64;100.00
75640;BME280;64233;51.486;6.332;2023-06-14T05:32:40;101274.22;;;16.63;100.00
75640;BME280;64233;51.486;6.332;2023-06-14T05:35:06;101279.28;;;16.75;100.00
75640;BME280;64233;51.486;6.332;2023-06-14T05:37:31;101277.34;;;16.80;100.00
75640;BME280;64233;51.486;6.332;2023-06-14T05:39:57;101284.28;;;17.02;100.00
75640;BME280;64233;51.486;6.332;2023-06-14T05:42:22;101287.97;;;17.16;100.00
75640;BME280;64233;51.486;6.332;2023-06-14T05:44:47;101282.22;;;17.23;100.00
75640;BME280;64233;51.486;6.332;2023-06-14T05:47:12;101278.94;;;17.26;100.00
75640;BME280;64233;51.486;6.332;2023-06-14T05:49:38;101286.88;;;17.17;100.00
75640;BME280;64233;51.486;6.332;2023-06-14T05:52:03;101281.72;;;17.21;100.00
75640;BME280;64233;51.486;6.332;2023-06-14T05:54:28;101290.28;;;17.33;100.00
75640;BME280;64233;51.486;6.332;2023-06-14T05:56:54;101290.81;;;17.35;100.00
75640;BME280;64233;51.486;6.332;2023-06-14T05:59:19;101293.53;;;17.35;100.00
75640;BME280;64233;51.486;6.332;2023-06-14T06:01:45;101294.97;;;17.57;100.00
75640;BME280;64233;51.486;6.332;2023-06-14T06:04:11;101293.31;;;17.61;100.00
75640;BME280;64233;51.486;6.332;2023-06-14T06:06:36;101297.78;;;17.76;100.00
75640;BME280;64233;51.486;6.332;2023-06-14T06:09:02;101296.38;;;17.79;100.00
75640;BME280;64233;51.486;6.332;2023-06-14T06:11:27;101300.72;;;17.80;100.00
75640;BME280;64233;51.486;6.332;2023-06-14T06:13:52;101297.41;;;17.88;100.00
75640;BME280;64233;51.486;6.332;2023-06-14T06:16:17;101298.13;;;17.99;100.00
75640;BME280;64233;51.486;6.332;2023-06-14T06:18:43;101310.72;;;18.14;100.00
75640;BME280;64233;51.486;6.332;2023-06-14T06:21:08;101305.72;;;18.26;100.00
75640;BME280;64233;51.486;6.332;2023-06-14T06:23:33;101305.34;;;18.33;100.00
75640;BME280;64233;51.486;6.332;2023-06-14T06:25:59;101312.16;;;18.54;100.00
75640;BME280;64233;51.486;6.332;2023-06-14T06:28:24;101305.09;;;18.53;100.00
75640;BME280;64233;51.486;6.332;2023-06-14T06:30:49;101309.28;;;18.65;100.00
75640;BME280;64233;51.486;6.332;2023-06-14T06:33:15;101306.44;;;18.56;100.00
75640;BME280;64233;51.486;6.332;2023-06-14T06:35:41;101318.09;;;18.56;100.00
75640;BME280;64233;51.486;6.332;2023-06-14T06:38:06;101316.72;;;18.59;100.00
75640;BME280;64233;51.486;6.332;2023-06-14T06:40:31;101319.38;;;18.83;100.00
75640;BME280;64233;51.486;6.332;2023-06-14T06:42:57;101319.78;;;18.96;100.00
75640;BME280;64233;51.486;6.332;2023-06-14T06:45:22;101327.31;;;19.18;100.00
75640;BME280;64233;51.486;6.332;2023-06-14T06:47:48;101328.50;;;19.31;100.00
75640;BME280;64233;51.486;6.332;2023-06-14T06:50:14;101335.91;;;19.44;98.85
75640;BME280;64233;51.486;6.332;2023-06-14T06:52:39;101342.69;;;19.47;99.54
75640;BME280;64233;51.486;6.332;2023-06-14T06:55:04;101344.31;;;19.61;93.90
75640;BME280;64233;51.486;6.332;2023-06-14T06:57:30;101342.34;;;19.67;98.62
75640;BME280;64233;51.486;6.332;2023-06-14T06:59:55;101347.63;;;19.77;95.54
75640;BME280;64233;51.486;6.332;2023-06-14T07:02:21;101340.59;;;20.04;96.15
75640;BME280;64233;51.486;6.332;2023-06-14T07:04:46;101339.41;;;19.97;93.34
75640;BME280;64233;51.486;6.332;2023-06-14T07:07:12;101352.75;;;20.12;88.61
75640;BME280;64233;51.486;6.332;2023-06-14T07:09:37;101359.41;;;20.34;91.25
75640;BME280;64233;51.486;6.332;2023-06-14T07:12:02;101352.53;;;20.36;90.18
75640;BME280;64233;51.486;6.332;2023-06-14T07:14:28;101365.16;;;20.46;84.06
75640;BME280;64233;51.486;6.332;2023-06-14T07:16:54;101353.66;;;20.49;83.43
75640;BME280;64233;51.486;6.332;2023-06-14T07:19:19;101363.72;;;20.62;86.58
75640;BME280;64233;51.486;6.332;2023-06-14T07:21:44;101372.44;;;20.64;89.34
75640;BME280;64233;51.486;6.332;2023-06-14T07:24:10;101366.66;;;20.38;84.64
75640;BME280;64233;51.486;6.332;2023-06-14T07:26:35;101360.63;;;20.13;85.28
75640;BME280;64233;51.486;6.332;2023-06-14T07:29:01;101365.78;;;20.43;81.76
75640;BME280;64233;51.486;6.332;2023-06-14T07:31:26;101364.47;;;20.54;82.75
75640;BME280;64233;51.486;6.332;2023-06-14T07:33:52;101362.72;;;20.86;89.10
75640;BME280;64233;51.486;6.332;2023-06-14T07:36:17;101365.91;;;21.02;77.30
75640;BME280;64233;51.486;6.332;2023-06-14T07:38:43;101369.16;;;21.04;77.89
75640;BME280;64233;51.486;6.332;2023-06-14T07:41:08;101370.78;;;21.05;75.18
75640;BME280;64233;51.486;6.332;2023-06-14T07:43:34;101368.00;;;20.83;71.79
75640;BME280;64233;51.486;6.332;2023-06-14T07:45:59;101370.72;;;20.83;75.49
75640;BME280;64233;51.486;6.332;2023-06-14T07:48:25;101369.84;;;21.10;73.81
75640;BME280;64233;51.486;6.332;2023-06-14T07:50:50;101378.56;;;20.98;69.04
75640;BME280;64233;51.486;6.332;2023-06-14T07:53:15;101382.75;;;20.81;70.62
75640;BME280;64233;51.486;6.332;2023-06-14T07:55:41;101379.13;;;21.09;68.46
75640;BME280;64233;51.486;6.332;2023-06-14T07:58:07;101384.22;;;21.02;74.20
75640;BME280;64233;51.486;6.332;2023-06-14T08:00:32;101383.09;;;21.03;72.98
75640;BME280;64233;51.486;6.332;2023-06-14T08:02:58;101378.78;;;21.24;70.09
75640;BME280;64233;51.486;6.332;2023-06-14T08:05:27;101384.75;;;21.26;67.00
75640;BME280;64233;51.486;6.332;2023-06-14T08:07:52;101380.13;;;21.13;71.31
75640;BME280;64233;51.486;6.332;2023-06-14T08:10:18;101379.91;;;21.23;74.93
75640;BME280;64233;51.486;6.332;2023-06-14T08:12:44;101382.56;;;21.14;67.67
75640;BME280;64233;51.486;6.332;2023-06-14T08:15:09;101377.22;;;21.09;68.21
75640;BME280;64233;51.486;6.332;2023-06-14T08:17:35;101385.25;;;21.51;76.21
75640;BME280;64233;51.486;6.332;2023-06-14T08:20:00;101371.09;;;21.26;62.51
75640;BME280;64233;51.486;6.332;2023-06-14T08:22:26;101374.66;;;21.27;69.21
75640;BME280;64233;51.486;6.332;2023-06-14T08:24:53;101381.84;;;21.45;65.76
75640;BME280;64233;51.486;6.332;2023-06-14T08:27:19;101376.06;;;21.24;67.30
75640;BME280;64233;51.486;6.332;2023-06-14T08:29:45;101376.25;;;21.28;60.83
75640;BME280;64233;51.486;6.332;2023-06-14T08:32:10;101377.34;;;21.04;62.52
75640;BME280;64233;51.486;6.332;2023-06-14T08:34:36;101382.19;;;21.07;63.82
75640;BME280;64233;51.486;6.332;2023-06-14T08:37:01;101379.94;;;21.69;66.17
75640;BME280;64233;51.486;6.332;2023-06-14T08:39:27;101375.41;;;21.87;64.73
75640;BME280;64233;51.486;6.332;2023-06-14T08:41:52;101380.38;;;21.84;58.34
75640;BME280;64233;51.486;6.332;2023-06-14T08:44:17;101377.22;;;22.00;64.04
75640;BME280;64233;51.486;6.332;2023-06-14T08:46:43;101377.22;;;21.69;61.95
75640;BME280;64233;51.486;6.332;2023-06-14T08:49:11;101375.13;;;21.97;62.09
75640;BME280;64233;51.486;6.332;2023-06-14T08:51:38;101376.69;;;21.89;58.90
75640;BME280;64233;51.486;6.332;2023-06-14T08:54:03;101372.97;;;21.85;68.60
75640;BME280;64233;51.486;6.332;2023-06-14T08:56:30;101378.59;;;21.43;62.98
75640;BME280;64233;51.486;6.332;2023-06-14T08:58:57;101380.09;;;21.63;70.30
75640;BME280;64233;51.486;6.332;2023-06-14T09:01:23;101383.38;;;21.38;67.65
75640;BME280;64233;51.486;6.332;2023-06-14T09:03:50;101374.31;;;20.92;63.31
75640;BME280;64233;51.486;6.332;2023-06-14T09:06:16;101373.38;;;21.10;65.81
75640;BME280;64233;51.486;6.332;2023-06-14T09:08:46;101378.72;;;21.15;62.13
75640;BME280;64233;51.486;6.332;2023-06-14T09:11:13;101381.31;;;21.21;66.13
75640;BME280;64233;51.486;6.332;2023-06-14T09:13:40;101383.34;;;21.15;68.60
75640;BME280;64233;51.486;6.332;2023-06-14T09:16:06;101376.38;;;21.45;68.03
75640;BME280;64233;51.486;6.332;2023-06-14T09:18:44;101378.75;;;21.38;64.59
75640;BME280;64233;51.486;6.332;2023-06-14T09:21:11;101382.28;;;21.39;61.88
75640;BME280;64233;51.486;6.332;2023-06-14T09:23:41;101381.38;;;21.66;66.39
75640;BME280;64233;51.486;6.332;2023-06-14T09:26:08;101386.47;;;21.59;69.63
75640;BME280;64233;51.486;6.332;2023-06-14T09:28:35;101366.06;;;21.56;68.26
75640;BME280;64233;51.486;6.332;2023-06-14T09:31:01;101390.44;;;21.75;65.29
75640;BME280;64233;51.486;6.332;2023-06-14T09:33:26;101386.34;;;21.64;64.14
75640;BME280;64233;51.486;6.332;2023-06-14T09:35:53;101385.53;;;21.86;62.97
75640;BME280;64233;51.486;6.332;2023-06-14T09:38:19;101391.97;;;21.45;65.77
75640;BME280;64233;51.486;6.332;2023-06-14T09:40:44;101388.59;;;21.62;66.98
75640;BME280;64233;51.486;6.332;2023-06-14T09:43:09;101399.53;;;21.48;64.57
75640;BME280;64233;51.486;6.332;2023-06-14T09:45:35;101395.69;;;21.72;68.94
75640;BME280;64233;51.486;6.332;2023-06-14T09:48:01;101394.72;;;21.90;66.14
75640;BME280;64233;51.486;6.332;2023-06-14T09:50:27;101386.81;;;21.66;69.87
75640;BME280;64233;51.486;6.332;2023-06-14T09:52:58;101391.19;;;21.98;70.08
75640;BME280;64233;51.486;6.332;2023-06-14T09:55:28;101391.44;;;21.57;65.19
75640;BME280;64233;51.486;6.332;2023-06-14T09:57:56;101388.75;;;21.88;67.44
75640;BME280;64233;51.486;6.332;2023-06-14T10:00:23;101381.88;;;21.99;64.51
75640;BME280;64233;51.486;6.332;2023-06-14T10:02:56;101394.41;;;21.46;64.01
75640;BME280;64233;51.486;6.332;2023-06-14T10:05:27;101398.13;;;22.27;74.08
75640;BME280;64233;51.486;6.332;2023-06-14T10:08:00;101402.22;;;22.07;62.60
75640;BME280;64233;51.486;6.332;2023-06-14T10:10:29;101397.44;;;21.90;65.03
75640;BME280;64233;51.486;6.332;2023-06-14T10:12:54;101414.22;;;21.52;65.50
75640;BME280;64233;51.486;6.332;2023-06-14T10:15:27;101396.47;;;21.63;71.39
75640;BME280;64233;51.486;6.332;2023-06-14T10:18:01;101403.09;;;21.94;66.18
75640;BME280;64233;51.486;6.332;2023-06-14T10:20:49;101401.06;;;21.40;65.45
75640;BME280;64233;51.486;6.332;2023-06-14T10:23:21;101395.00;;;21.43;62.92
75640;BME280;64233;51.486;6.332;2023-06-14T10:25:56;101394.41;;;22.23;70.28
75640;BME280;64233;51.486;6.332;2023-06-14T10:35:04;101397.06;;;21.60;66.37
75640;BME280;64233;51.486;6.332;2023-06-14T10:37:30;101391.59;;;21.60;65.15
75640;BME280;64233;51.486;6.332;2023-06-14T10:39:56;101380.03;;;22.49;61.94
75640;BME280;64233;51.486;6.332;2023-06-14T10:42:21;101393.13;;;21.98;58.90
75640;BME280;64233;51.486;6.332;2023-06-14T10:44:54;101388.97;;;21.69;60.90
75640;BME280;64233;51.486;6.332;2023-06-14T10:47:34;101392.91;;;22.17;58.39
75640;BME280;64233;51.486;6.332;2023-06-14T10:50:08;101382.00;;;21.63;58.67
75640;BME280;64233;51.486;6.332;2023-06-14T10:52:38;101386.78;;;21.57;60.39
75640;BME280;64233;51.486;6.332;2023-06-14T10:55:05;101377.88;;;21.74;57.84
75640;BME280;64233;51.486;6.332;2023-06-14T10:57:32;101397.31;;;21.73;55.66
75640;BME280;64233;51.486;6.332;2023-06-14T11:00:07;101376.97;;;22.10;57.81
75640;BME280;64233;51.486;6.332;2023-06-14T11:02:51;101388.22;;;22.09;58.19
75640;BME280;64233;51.486;6.332;2023-06-14T11:05:28;101394.97;;;21.57;56.91
75640;BME280;64233;51.486;6.332;2023-06-14T11:10:39;101393.88;;;22.21;56.61
75640;BME280;64233;51.486;6.332;2023-06-14T11:13:05;101388.09;;;21.60;54.36
75640;BME280;64233;51.486;6.332;2023-06-14T11:15:31;101398.81;;;22.01;54.15
75640;BME280;64233;51.486;6.332;2023-06-14T11:17:58;101400.31;;;21.85;52.66
75640;BME280;64233;51.486;6.332;2023-06-14T11:20:26;101395.34;;;22.18;58.12
75640;BME280;64233;51.486;6.332;2023-06-14T11:22:52;101388.22;;;22.09;55.96
75640;BME280;64233;51.486;6.332;2023-06-14T11:25:18;101394.94;;;22.34;56.33
75640;BME280;64233;51.486;6.332;2023-06-14T11:27:44;101394.09;;;21.93;56.18
75640;BME280;64233;51.486;6.332;2023-06-14T11:30:10;101381.78;;;22.45;60.06
75640;BME280;64233;51.486;6.332;2023-06-14T11:32:39;101393.84;;;21.81;57.32
75640;BME280;64233;51.486;6.332;2023-06-14T11:35:06;101383.47;;;22.23;60.09
75640;BME280;64233;51.486;6.332;2023-06-14T11:37:32;101379.44;;;22.69;58.03
75640;BME280;64233;51.486;6.332;2023-06-14T11:40:01;101378.16;;;22.76;55.32
75640;BME280;64233;51.486;6.332;2023-06-14T11:42:28;101387.97;;;22.28;54.83
75640;BME280;64233;51.486;6.332;2023-06-14T11:44:55;101375.66;;;22.39;58.76
75640;BME280;64233;51.486;6.332;2023-06-14T11:47:21;101379.47;;;22.78;55.58
75640;BME280;64233;51.486;6.332;2023-06-14T11:49:47;101380.81;;;23.16;54.73
75640;BME280;64233;51.486;6.332;2023-06-14T11:52:12;101378.25;;;23.28;53.08
75640;BME280;64233;51.486;6.332;2023-06-14T11:54:38;101383.38;;;23.30;52.40
75640;BME280;64233;51.486;6.332;2023-06-14T11:57:06;101389.59;;;22.86;51.73
75640;BME280;64233;51.486;6.332;2023-06-14T11:59:32;101380.41;;;22.74;53.97
75640;BME280;64233;51.486;6.332;2023-06-14T12:01:57;101390.91;;;22.89;53.15
75640;BME280;64233;51.486;6.332;2023-06-14T12:04:24;101376.78;;;23.13;52.10
75640;BME280;64233;51.486;6.332;2023-06-14T12:06:50;101377.91;;;23.30;53.70
75640;BME280;64233;51.486;6.332;2023-06-14T12:09:18;101371.16;;;23.18;53.54
75640;BME280;64233;51.486;6.332;2023-06-14T12:11:45;101376.13;;;23.43;53.79
75640;BME280;64233;51.486;6.332;2023-06-14T12:14:10;101369.66;;;23.47;53.05
75640;BME280;64233;51.486;6.332;2023-06-14T12:16:38;101374.34;;;22.94;52.94
75640;BME280;64233;51.486;6.332;2023-06-14T12:19:16;101373.16;;;22.60;55.75
75640;BME280;64233;51.486;6.332;2023-06-14T12:21:43;101373.03;;;22.74;53.63
75640;BME280;64233;51.486;6.332;2023-06-14T12:24:09;101382.06;;;23.01;54.92
75640;BME280;64233;51.486;6.332;2023-06-14T12:26:40;101377.34;;;22.75;51.81
75640;BME280;64233;51.486;6.332;2023-06-14T12:29:06;101387.25;;;23.46;53.82
75640;BME280;64233;51.486;6.332;2023-06-14T12:31:32;101376.75;;;23.57;51.35
75640;BME280;64233;51.486;6.332;2023-06-14T12:33:58;101388.56;;;23.14;56.84
75640;BME280;64233;51.486;6.332;2023-06-14T12:36:24;101376.94;;;22.99;52.32
75640;BME280;64233;51.486;6.332;2023-06-14T12:38:50;101381.91;;;22.97;54.01
75640;BME280;64233;51.486;6.332;2023-06-14T12:41:19;101380.13;;;22.84;53.46
75640;BME280;64233;51.486;6.332;2023-06-14T12:43:46;101374.19;;;23.34;52.67
75640;BME280;64233;51.486;6.332;2023-06-14T12:46:11;101382.03;;;23.80;54.19
75640;BME280;64233;51.486;6.332;2023-06-14T12:48:36;101384.16;;;23.04;51.60
75640;BME280;64233;51.486;6.332;2023-06-14T12:51:02;101379.84;;;23.29;52.70
75640;BME280;64233;51.486;6.332;2023-06-14T12:53:27;101385.66;;;23.36;52.12